Time;durP1;ratioP1;P1;durP2;ratioP2;P2;SDS_P1;SDS_P2;PMS_P1;PMS_P2;Temp;Humidity;BMP_temperature;BMP_pressure;BME280_temperature;BME280_humidity;BME280_pressure;Samples;Min_cycle;Max_cycle;Signal;HPM_P1;HPM_P2
2022/09/17 00:00:42;;;;;;;9.57;2.95;;;;;;;23.41;73.19;97301.19;5094437;28;20175;-59
2022/09/17 00:03:08;;;;;;;9.43;2.58;;;;;;;23.47;71.71;97316.19;5094335;28;20302;-59
2022/09/17 00:05:38;;;;;;;11.48;3.08;;;;;;;23.42;72.38;97313.41;5094242;28;20178;-59
2022/09/17 00:08:06;;;;;;;5.25;3.08;;;;;;;23.38;72.07;97312.19;5094489;28;20174;-59
2022/09/17 00:10:36;;;;;;;9.85;2.70;;;;;;;23.41;72.40;97301.19;5094036;28;20264;-59
2022/09/17 00:13:03;;;;;;;13.98;3.47;;;;;;;23.29;72.60;97287.88;5094202;28;20198;-59
2022/09/17 00:15:28;;;;;;;12.15;3.13;;;;;;;23.22;73.03;97286.28;5094129;28;20195;-59
2022/09/17 00:17:56;;;;;;;10.82;3.35;;;;;;;23.08;73.86;97274.94;5094207;28;20171;-59
2022/09/17 00:20:25;;;;;;;6.97;3.15;;;;;;;23.05;74.32;97287.75;5093927;28;20183;-59
2022/09/17 00:22:52;;;;;;;9.95;3.47;;;;;;;22.95;74.70;97280.28;5093930;28;20579;-59
2022/09/17 00:25:18;;;;;;;7.93;2.70;;;;;;;22.94;74.53;97283.13;5093927;28;20172;-59
2022/09/17 00:27:44;;;;;;;9.40;2.78;;;;;;;23.00;74.44;97290.22;5094013;28;20217;-59
2022/09/17 00:30:10;;;;;;;7.97;2.65;;;;;;;22.98;73.96;97290.44;5093735;28;20569;-59
2022/09/17 00:32:36;;;;;;;6.30;2.45;;;;;;;23.03;73.07;97297.72;5093895;28;20172;-59
2022/09/17 00:35:01;;;;;;;8.57;2.53;;;;;;;22.82;74.07;97305.91;5092435;28;20183;-59
2022/09/17 00:37:26;;;;;;;4.68;3.10;;;;;;;22.74;75.04;97295.59;5093951;28;20638;-59
2022/09/17 00:39:52;;;;;;;9.98;2.47;;;;;;;22.82;75.11;97308.53;5093539;28;20551;-59
2022/09/17 00:42:18;;;;;;;8.93;2.97;;;;;;;22.93;74.17;97310.53;5093607;28;20171;-59
2022/09/17 00:44:55;;;;;;;11.27;2.72;;;;;;;23.04;73.80;97313.34;5093618;28;20250;-59
2022/09/17 00:47:45;;;;;;;10.40;2.83;;;;;;;22.89;75.32;97317.28;5092216;28;20570;-59
2022/09/17 00:50:22;;;;;;;8.45;2.72;;;;;;;22.90;75.34;97313.59;5093654;28;20190;-59
2022/09/17 00:53:08;;;;;;;9.35;3.08;;;;;;;22.85;75.75;97316.84;5092092;28;20635;-59
2022/09/17 00:55:38;;;;;;;5.72;2.53;;;;;;;22.89;75.01;97320.69;5093786;28;20156;-59
2022/09/17 00:58:08;;;;;;;9.70;2.88;;;;;;;22.84;75.74;97320.50;5093549;28;20175;-59
2022/09/17 01:00:34;;;;;;;5.50;2.63;;;;;;;22.61;77.32;97314.09;5093420;28;20164;-59
2022/09/17 01:03:00;;;;;;;9.10;2.78;;;;;;;22.24;80.45;97312.09;5093448;28;20183;-59
2022/09/17 01:05:45;;;;;;;8.02;3.15;;;;;;;22.31;80.35;97312.91;5093120;28;20566;-59
2022/09/17 01:08:29;;;;;;;5.63;2.67;;;;;;;22.39;79.79;97305.59;5092667;28;20210;-59
2022/09/17 01:11:04;;;;;;;12.38;3.20;;;;;;;22.05;81.56;97297.09;5093271;28;20214;-59
2022/09/17 01:13:35;;;;;;;9.05;2.80;;;;;;;21.97;81.26;97295.47;5093513;28;20171;-59
2022/09/17 01:16:03;;;;;;;16.25;3.28;;;;;;;22.00;79.66;97289.81;5092957;28;20159;-59
2022/09/17 01:18:47;;;;;;;8.63;2.75;;;;;;;22.02;79.16;97276.44;5093054;28;20184;-59
2022/09/17 01:21:46;;;;;;;8.50;2.63;;;;;;;21.98;79.03;97272.59;5093185;28;20227;-59
2022/09/17 01:24:27;;;;;;;11.35;2.80;;;;;;;21.98;79.06;97275.22;5092944;28;20168;-59
2022/09/17 01:27:11;;;;;;;17.75;2.70;;;;;;;21.90;77.73;97272.78;5092810;28;20572;-59
2022/09/17 01:29:58;;;;;;;10.63;3.15;;;;;;;21.94;77.96;97279.28;5092655;28;20187;-59
2022/09/17 01:32:24;;;;;;;8.02;2.80;;;;;;;21.98;78.15;97278.66;5092922;28;20542;-59
2022/09/17 01:35:19;;;;;;;5.55;2.47;;;;;;;21.90;78.90;97276.25;5092622;28;20228;-59
2022/09/17 01:38:03;;;;;;;14.63;3.10;;;;;;;21.90;79.25;97272.78;5092652;28;20164;-59
2022/09/17 01:41:17;;;;;;;8.30;2.78;;;;;;;21.90;78.84;97267.50;5092111;28;20156;-59
2022/09/17 01:44:05;;;;;;;8.45;3.47;;;;;;;21.95;77.98;97265.09;5030627;28;20178;-56
2022/09/17 01:46:43;;;;;;;8.57;2.30;;;;;;;21.97;77.01;97257.81;5092541;28;20160;-56
2022/09/17 01:49:11;;;;;;;12.45;3.28;;;;;;;21.92;77.32;97260.25;5092424;28;20588;-59
2022/09/17 01:51:41;;;;;;;6.88;3.20;;;;;;;21.91;76.95;97269.16;5092301;28;20196;-59
2022/09/17 01:54:15;;;;;;;5.22;2.38;;;;;;;21.89;76.77;97271.16;5092276;28;20160;-59
2022/09/17 01:57:02;;;;;;;9.95;2.38;;;;;;;21.77;76.96;97283.31;5092574;28;20167;-59
2022/09/17 01:59:41;;;;;;;5.53;2.45;;;;;;;21.66;77.76;97281.25;5091045;28;20564;-59
2022/09/17 02:02:31;;;;;;;8.18;2.83;;;;;;;21.58;77.90;97276.19;5092701;28;20164;-59
2022/09/17 02:05:06;;;;;;;5.65;2.47;;;;;;;21.46;78.85;97280.44;5092528;28;20644;-59
2022/09/17 02:07:38;;;;;;;5.13;2.58;;;;;;;21.45;78.37;97284.06;5092483;28;20221;-59
2022/09/17 02:10:10;;;;;;;8.80;2.67;;;;;;;21.40;79.12;97276.75;5092333;28;20244;-58
2022/09/17 02:12:40;;;;;;;6.43;2.42;;;;;;;21.36;78.98;97274.72;5090905;28;20240;-59
2022/09/17 02:15:12;;;;;;;8.02;2.28;;;;;;;21.42;78.05;97273.94;5092817;28;20171;-59
2022/09/17 02:17:40;;;;;;;8.43;2.47;;;;;;;21.53;77.14;97271.53;5092139;28;20160;-59
2022/09/17 02:20:06;;;;;;;4.07;2.55;;;;;;;21.65;76.68;97274.38;5092020;28;20192;-59
2022/09/17 02:22:49;;;;;;;6.22;2.60;;;;;;;21.78;76.30;97284.94;5092266;28;20190;-59
2022/09/17 02:25:25;;;;;;;5.75;2.70;;;;;;;21.63;77.07;97276.41;5092196;28;20594;-59
2022/09/17 02:28:00;;;;;;;5.72;2.35;;;;;;;21.52;78.42;97280.44;5090793;28;20171;-59
2022/09/17 02:30:25;;;;;;;9.25;2.50;;;;;;;21.49;78.06;97265.03;5091971;28;20188;-59
2022/09/17 02:32:53;;;;;;;4.57;2.45;;;;;;;21.50;78.00;97255.34;5091955;28;20244;-59
2022/09/17 02:35:18;;;;;;;5.53;2.40;;;;;;;21.54;76.98;97238.94;5091942;28;20172;-59
2022/09/17 02:37:44;;;;;;;6.05;2.85;;;;;;;21.52;76.85;97235.69;5091850;28;20712;-59
2022/09/17 02:40:12;;;;;;;2.65;1.92;;;;;;;21.51;76.62;97247.22;5092020;28;20641;-58
2022/09/17 02:42:50;;;;;;;6.38;1.95;;;;;;;21.54;76.68;97240.75;5091812;28;20180;-59
2022/09/17 02:45:15;;;;;;;5.18;1.95;;;;;;;21.58;76.80;97239.34;5091985;28;20246;-59
2022/09/17 02:48:07;;;;;;;4.65;2.70;;;;;;;21.50;77.21;97221.13;5092069;28;20179;-59
2022/09/17 02:51:10;;;;;;;7.18;2.22;;;;;;;21.51;75.30;97218.25;5091919;28;20199;-59
2022/09/17 02:53:48;;;;;;;9.50;2.55;;;;;;;21.38;76.27;97230.63;5095813;28;20314;-59
2022/09/17 02:56:43;;;;;;;6.80;2.10;;;;;;;21.31;76.30;97221.88;5095752;28;20164;-58
2022/09/17 02:59:31;;;;;;;8.20;2.22;;;;;;;21.28;76.40;97215.19;5073189;28;20187;-59
2022/09/17 03:02:26;;;;;;;11.38;2.40;;;;;;;21.30;76.10;97201.84;5094300;28;20175;-59
2022/09/17 03:04:54;;;;;;;8.55;2.53;;;;;;;21.23;75.77;97180.00;5090322;28;20687;-59
2022/09/17 03:07:21;;;;;;;7.53;2.95;;;;;;;21.39;75.19;97196.19;5095686;28;20281;-58
2022/09/17 03:09:47;;;;;;;9.00;2.30;;;;;;;21.43;75.11;97201.84;5095606;28;20214;-59
2022/09/17 03:12:13;;;;;;;6.72;2.30;;;;;;;21.55;73.91;97206.31;5095287;28;20199;-59
2022/09/17 03:14:38;;;;;;;4.75;2.67;;;;;;;21.58;73.62;97205.13;5095354;28;20200;-59
2022/09/17 03:17:04;;;;;;;4.95;2.28;;;;;;;21.64;73.50;97199.84;5095164;28;20644;-59
2022/09/17 03:19:29;;;;;;;8.27;2.50;;;;;;;21.67;73.10;97201.28;5095037;28;20661;-59
2022/09/17 03:21:54;;;;;;;7.05;2.85;;;;;;;21.64;73.15;97189.31;5095126;28;20182;-59
2022/09/17 03:24:20;;;;;;;12.35;2.50;;;;;;;21.55;73.28;97192.34;5095218;28;20167;-58
2022/09/17 03:26:49;;;;;;;8.70;2.40;;;;;;;21.45;73.66;97195.38;5095327;28;20183;-58
2022/09/17 03:29:15;;;;;;;8.32;2.65;;;;;;;21.39;73.84;97188.28;5094912;28;20195;-58
2022/09/17 03:31:41;;;;;;;5.63;2.55;;;;;;;21.32;73.99;97186.69;5093705;28;20172;-58
2022/09/17 03:34:06;;;;;;;8.25;2.35;;;;;;;21.13;74.83;97185.66;5094913;28;20175;-58
2022/09/17 03:36:32;;;;;;;10.07;3.05;;;;;;;21.22;74.63;97178.38;5094870;28;20176;-58
2022/09/17 03:38:59;;;;;;;8.05;2.53;;;;;;;21.24;74.60;97168.44;5094856;28;20175;-58
2022/09/17 03:41:24;;;;;;;7.55;2.30;;;;;;;21.21;74.46;97160.97;5094945;28;20179;-58
2022/09/17 03:43:50;;;;;;;6.88;2.40;;;;;;;21.26;73.77;97137.47;5094731;28;20683;-58
2022/09/17 03:46:16;;;;;;;6.18;2.58;;;;;;;21.21;74.10;97130.19;5094643;28;20182;-59
2022/09/17 03:48:41;;;;;;;10.20;2.22;;;;;;;21.08;74.68;97116.22;5094557;28;20675;-59
2022/09/17 03:51:07;;;;;;;6.75;2.50;;;;;;;21.18;74.29;97120.09;5094604;28;20193;-59
2022/09/17 03:53:33;;;;;;;9.27;2.55;;;;;;;21.25;73.71;97126.16;5094549;28;20172;-59
2022/09/17 03:56:00;;;;;;;7.93;2.33;;;;;;;21.16;73.51;97116.03;5094760;28;20187;-59
2022/09/17 03:58:27;;;;;;;6.45;1.88;;;;;;;21.30;73.31;97131.63;5094476;28;20176;-58
2022/09/17 04:00:54;;;;;;;6.85;2.15;;;;;;;21.38;73.16;97128.00;5094402;28;20171;-59
2022/09/17 04:03:20;;;;;;;10.88;2.47;;;;;;;21.34;72.91;97142.56;5093962;28;20180;-58
2022/09/17 04:05:46;;;;;;;7.82;1.92;;;;;;;21.26;73.49;97148.00;5094575;28;20179;-58
2022/09/17 04:08:11;;;;;;;9.43;2.47;;;;;;;21.25;73.86;97159.53;5094202;28;20202;-58
2022/09/17 04:10:37;;;;;;;6.35;2.15;;;;;;;21.24;73.72;97164.00;5094140;28;20199;-58
2022/09/17 04:13:02;;;;;;;9.23;2.80;;;;;;;21.26;73.72;97161.16;5094195;28;20233;-58
2022/09/17 04:15:28;;;;;;;8.77;2.60;;;;;;;21.35;73.84;97154.69;5094166;28;20176;-58
2022/09/17 04:17:56;;;;;;;9.68;2.50;;;;;;;21.36;72.67;97140.53;5094052;28;20229;-58
2022/09/17 04:20:25;;;;;;;11.27;2.95;;;;;;;21.27;73.15;97149.66;5093871;28;20704;-58
2022/09/17 04:22:51;;;;;;;8.73;2.03;;;;;;;21.29;73.27;97150.25;5092733;28;20179;-58
2022/09/17 04:25:17;;;;;;;4.80;2.33;;;;;;;21.24;73.53;97140.34;5092676;28;20648;-58
2022/09/17 04:27:44;;;;;;;4.82;2.33;;;;;;;21.13;74.08;97143.56;5093882;28;20187;-58
2022/09/17 04:30:09;;;;;;;9.73;2.70;;;;;;;21.21;74.25;97145.19;5093718;28;20684;-58
2022/09/17 04:32:35;;;;;;;12.20;3.00;;;;;;;21.22;77.31;97154.69;5092554;28;20191;-58
2022/09/17 04:35:00;;;;;;;7.60;2.28;;;;;;;21.32;77.58;97144.59;5093819;28;20557;-58
2022/09/17 04:37:26;;;;;;;10.70;2.40;;;;;;;21.28;76.52;97141.53;5093688;28;20172;-58
2022/09/17 04:39:52;;;;;;;7.28;2.10;;;;;;;21.41;73.80;97138.91;5093645;28;20183;-58
2022/09/17 04:42:17;;;;;;;9.68;2.80;;;;;;;21.47;73.52;97124.13;5092308;28;20172;-58
2022/09/17 04:44:42;;;;;;;14.07;2.50;;;;;;;21.50;72.94;97115.84;5093529;28;20172;-58
2022/09/17 04:47:08;;;;;;;5.72;2.17;;;;;;;21.49;72.85;97114.19;5093641;28;20175;-59
2022/09/17 04:49:33;;;;;;;7.22;2.10;;;;;;;21.54;72.16;97119.66;5093661;28;20219;-58
2022/09/17 04:51:59;;;;;;;9.63;2.35;;;;;;;21.62;71.61;97119.47;5093461;28;20570;-59
2022/09/17 04:54:24;;;;;;;9.57;2.28;;;;;;;21.67;71.33;97130.19;5093416;28;20652;-58
2022/09/17 04:56:50;;;;;;;7.55;2.08;;;;;;;21.59;71.92;97138.28;5093629;28;20180;-58
2022/09/17 04:59:16;;;;;;;6.90;2.15;;;;;;;21.59;70.76;97125.94;5093294;28;20602;-58
2022/09/17 05:01:42;;;;;;;9.60;2.95;;;;;;;21.63;71.62;97156.09;5091937;28;20180;-59
2022/09/17 05:04:08;;;;;;;6.03;2.25;;;;;;;21.74;72.65;97159.97;5093229;28;20278;-58
2022/09/17 05:06:33;;;;;;;9.43;3.47;;;;;;;21.67;76.17;97151.25;5093664;28;20562;-58
2022/09/17 05:08:59;;;;;;;8.82;2.83;;;;;;;21.74;76.74;97141.53;5093210;28;20196;-58
2022/09/17 05:11:24;;;;;;;6.28;2.97;;;;;;;21.87;77.77;97138.88;5092980;28;20574;-58
2022/09/17 05:13:50;;;;;;;12.30;3.45;;;;;;;21.77;77.58;97125.31;5092450;28;20250;-58
2022/09/17 05:16:15;;;;;;;7.28;2.60;;;;;;;21.78;74.29;97138.28;5093103;28;20172;-58
2022/09/17 05:18:41;;;;;;;10.05;3.40;;;;;;;21.94;74.45;97142.31;5092729;28;20192;-58
2022/09/17 05:21:06;;;;;;;7.10;2.70;;;;;;;22.02;75.49;97160.53;5091585;28;20172;-59
2022/09/17 05:23:32;;;;;;;9.93;2.80;;;;;;;22.20;74.32;97163.31;5092834;28;20184;-59
2022/09/17 05:25:59;;;;;;;9.18;4.45;;;;;;;22.32;78.07;97164.28;5092826;28;20171;-59
2022/09/17 05:28:24;;;;;;;15.60;4.43;;;;;;;22.36;78.98;97157.56;5092671;28;20217;-59
2022/09/17 05:30:50;;;;;;;9.70;4.25;;;;;;;22.35;79.79;97175.22;5092743;28;20203;-59
2022/09/17 05:33:15;;;;;;;9.27;4.32;;;;;;;22.48;80.41;97177.00;5091352;28;20282;-58
2022/09/17 05:35:42;;;;;;;9.23;4.50;;;;;;;22.56;80.16;97180.22;5092607;28;20171;-58
2022/09/17 05:38:08;;;;;;;9.27;4.25;;;;;;;22.61;80.10;97179.63;5092662;28;20171;-58
2022/09/17 05:40:33;;;;;;;11.32;4.57;;;;;;;22.57;80.77;97175.78;5092503;28;20530;-59
2022/09/17 05:43:01;;;;;;;10.25;4.15;;;;;;;22.70;80.23;97180.97;5092759;28;20260;-58
2022/09/17 05:45:27;;;;;;;14.50;4.60;;;;;;;22.68;79.90;97169.84;5091530;28;20588;-58
2022/09/17 05:48:01;;;;;;;12.98;4.28;;;;;;;22.72;79.79;97178.97;5092482;28;20258;-59
2022/09/17 05:50:28;;;;;;;12.05;4.53;;;;;;;22.73;79.62;97186.63;5092421;28;20199;-59
2022/09/17 05:52:53;;;;;;;14.32;5.72;;;;;;;22.73;80.25;97194.56;5092297;28;20186;-59
2022/09/17 05:55:21;;;;;;;13.98;4.38;;;;;;;22.75;80.88;97195.16;5092522;28;20179;-59
2022/09/17 05:57:46;;;;;;;8.05;4.45;;;;;;;;;;5092388;28;20579;-59
2022/09/17 06:00:12;;;;;;;11.88;3.78;;;;;;;22.91;80.25;97193.88;5092147;28;20175;-59
2022/09/17 06:02:38;;;;;;;10.63;3.65;;;;;;;22.98;80.41;97189.34;5092197;28;20183;-59
2022/09/17 06:05:04;;;;;;;6.68;3.50;;;;;;;23.03;80.56;97193.00;5091028;28;20176;-59
2022/09/17 06:07:30;;;;;;;10.93;4.38;;;;;;;23.16;80.24;97215.84;5092106;28;20648;-59
2022/09/17 06:09:55;;;;;;;7.70;3.55;;;;;;;23.22;79.82;97222.94;5092274;28;20211;-59
2022/09/17 06:12:21;;;;;;;8.68;4.50;;;;;;;23.35;79.20;97228.13;5092410;28;20199;-59
2022/09/17 06:14:48;;;;;;;11.23;5.13;;;;;;;23.43;78.78;97225.25;5092260;28;20644;-59
2022/09/17 06:17:13;;;;;;;9.63;4.57;;;;;;;23.48;78.45;97233.34;5092073;28;20187;-59
2022/09/17 06:19:39;;;;;;;10.10;5.07;;;;;;;23.52;77.44;97229.22;5092114;28;20199;-58
2022/09/17 06:22:04;;;;;;;8.88;4.53;;;;;;;23.58;76.52;97238.94;5092193;28;20221;-59
2022/09/17 06:24:31;;;;;;;7.05;3.92;;;;;;;23.63;75.66;97237.28;5091938;28;20176;-59
2022/09/17 06:26:56;;;;;;;9.23;4.13;;;;;;;23.64;75.74;97244.19;5096127;28;20198;-59
2022/09/17 06:29:22;;;;;;;8.63;3.83;;;;;;;23.66;75.63;97246.63;5096036;28;20676;-59
2022/09/17 06:31:48;;;;;;;9.05;3.97;;;;;;;23.71;75.47;97249.41;5096297;28;20171;-59
2022/09/17 06:34:13;;;;;;;11.40;3.72;;;;;;;23.77;75.27;97244.88;5096101;28;20176;-59
2022/09/17 06:36:38;;;;;;;5.93;3.20;;;;;;;23.85;74.32;97246.47;5096286;28;20167;-59
2022/09/17 06:39:04;;;;;;;9.45;3.30;;;;;;;23.88;73.90;97256.63;5095976;28;20159;-58
2022/09/17 06:41:30;;;;;;;6.30;3.40;;;;;;;23.79;74.29;97257.88;5095924;28;20180;-58
2022/09/17 06:43:55;;;;;;;9.10;3.75;;;;;;;23.81;74.43;97247.91;5095898;28;20221;-59
2022/09/17 06:46:21;;;;;;;8.48;4.30;;;;;;;23.94;74.21;97262.88;5095973;28;20209;-58
2022/09/17 06:48:46;;;;;;;11.50;3.97;;;;;;;23.96;74.03;97264.25;5095690;28;20286;-58
2022/09/17 06:51:13;;;;;;;11.98;3.92;;;;;;;24.02;73.85;97265.25;5095776;28;20258;-59
2022/09/17 06:53:39;;;;;;;8.35;4.05;;;;;;;24.06;73.81;97271.72;5095600;28;20722;-59
2022/09/17 06:56:07;;;;;;;10.43;3.80;;;;;;;24.06;74.12;97272.50;5095939;28;20187;-59
2022/09/17 06:58:36;;;;;;;12.80;4.07;;;;;;;24.10;74.31;97274.50;5095855;28;20188;-59
2022/09/17 07:01:03;;;;;;;9.38;3.97;;;;;;;24.15;74.74;97277.31;5095544;28;20172;-58
2022/09/17 07:03:29;;;;;;;7.60;3.83;;;;;;;24.23;74.47;97266.47;5095509;28;20259;-58
2022/09/17 07:05:55;;;;;;;11.65;4.03;;;;;;;24.26;74.38;97273.94;5094160;28;20563;-59
2022/09/17 07:08:22;;;;;;;9.63;4.13;;;;;;;24.34;73.60;97281.63;5095587;28;20557;-59
2022/09/17 07:10:47;;;;;;;10.70;4.07;;;;;;;24.53;73.00;97275.31;5095219;28;20207;-59
2022/09/17 07:13:13;;;;;;;10.65;3.60;;;;;;;24.67;71.74;97262.78;5095341;28;20175;-59
2022/09/17 07:15:38;;;;;;;7.40;3.50;;;;;;;24.82;70.48;97261.38;5095549;28;20171;-59
2022/09/17 07:18:11;;;;;;;10.90;3.70;;;;;;;24.93;69.99;97258.00;5095077;28;20242;-59
2022/09/17 07:20:38;;;;;;;10.32;3.75;;;;;;;25.08;69.07;97258.38;5095435;28;20182;-59
2022/09/17 07:23:03;;;;;;;8.02;3.72;;;;;;;25.20;68.75;97258.44;5095056;28;20187;-59
2022/09/17 07:25:29;;;;;;;12.43;3.70;;;;;;;25.36;68.86;97258.66;5095283;28;20180;-59
2022/09/17 07:27:55;;;;;;;6.43;3.53;;;;;;;25.52;66.92;97257.19;5095098;28;20203;-58
2022/09/17 07:30:21;;;;;;;10.68;4.00;;;;;;;25.62;67.08;97258.28;5094888;28;20230;-57
2022/09/17 07:32:46;;;;;;;10.45;3.50;;;;;;;25.73;66.55;97249.50;5093614;28;20256;-57
2022/09/17 07:35:12;;;;;;;7.95;3.08;;;;;;;25.83;65.86;97257.72;5094731;28;20649;-58
2022/09/17 07:37:38;;;;;;;8.02;2.97;;;;;;;25.95;65.69;97245.31;5094322;28;20221;-57
2022/09/17 07:40:07;;;;;;;11.82;3.95;;;;;;;25.96;65.10;97241.63;5095102;28;20176;-57
2022/09/17 07:42:32;;;;;;;6.05;3.50;;;;;;;25.97;64.49;97237.16;5094828;28;20184;-59
2022/09/17 07:44:58;;;;;;;12.98;3.67;;;;;;;25.74;63.98;97237.09;5095039;28;20229;-59
2022/09/17 07:47:23;;;;;;;9.20;3.25;;;;;;;25.78;64.57;97233.75;5094779;28;20187;-59
2022/09/17 07:49:49;;;;;;;7.43;3.17;;;;;;;25.88;63.35;97247.25;5094476;28;20619;-59
2022/09/17 07:52:14;;;;;;;6.20;2.85;;;;;;;25.91;63.56;97238.88;5094612;28;20278;-58
2022/09/17 07:54:40;;;;;;;11.02;9.23;;;;;;;26.03;62.57;97239.69;5094312;28;20172;-59
2022/09/17 07:57:05;;;;;;;7.57;3.22;;;;;;;26.11;61.30;97214.66;5094544;28;20175;-59
2022/09/17 07:59:31;;;;;;;9.85;3.08;;;;;;;25.97;62.00;97224.72;5094464;28;20222;-59
2022/09/17 08:01:56;;;;;;;8.90;3.28;;;;;;;26.09;61.51;97232.66;5093101;28;20187;-59
2022/09/17 08:04:22;;;;;;;13.77;3.22;;;;;;;26.12;61.10;97227.69;5094377;28;20180;-59
2022/09/17 08:06:47;;;;;;;8.45;3.15;;;;;;;26.01;61.20;97233.78;5094290;28;20176;-59
2022/09/17 08:09:14;;;;;;;9.20;2.97;;;;;;;26.10;60.81;97236.91;5094189;28;20287;-59
2022/09/17 08:11:41;;;;;;;12.88;4.35;;;;;;;26.10;60.33;97245.69;5094135;28;20625;-58
2022/09/17 08:14:12;;;;;;;8.77;3.35;;;;;;;26.19;60.27;97254.88;5094246;28;20555;-58
2022/09/17 08:16:38;;;;;;;18.75;6.93;;;;;;;26.28;60.47;97242.91;5094135;28;20167;-59
2022/09/17 08:19:04;;;;;;;10.45;4.28;;;;;;;26.36;60.43;97231.94;5092561;28;20187;-59
2022/09/17 08:21:29;;;;;;;12.20;3.65;;;;;;;26.38;60.04;97224.56;5093996;28;20179;-58
2022/09/17 08:23:56;;;;;;;8.35;3.35;;;;;;;26.37;59.47;97224.78;5094281;28;20182;-59
2022/09/17 08:26:23;;;;;;;8.30;3.10;;;;;;;26.47;59.25;97225.03;5094073;28;20585;-58
2022/09/17 08:28:53;;;;;;;6.88;2.70;;;;;;;26.55;58.18;97222.84;5093958;28;20211;-57
2022/09/17 08:31:20;;;;;;;7.95;3.15;;;;;;;26.65;57.65;97233.66;5094092;28;20188;-58
2022/09/17 08:33:46;;;;;;;10.93;3.10;;;;;;;26.71;56.90;97235.38;5093820;28;20647;-58
2022/09/17 08:36:14;;;;;;;8.93;3.15;;;;;;;26.75;56.30;97225.09;5093771;28;20708;-58
2022/09/17 08:38:40;;;;;;;9.60;3.22;;;;;;;26.88;55.74;97222.97;5093958;28;20259;-58
2022/09/17 08:41:08;;;;;;;14.50;3.10;;;;;;;26.87;56.65;97216.06;5094079;28;20171;-58
2022/09/17 08:43:39;;;;;;;11.65;2.78;;;;;;;26.93;56.46;97215.09;5093891;28;20544;-57
2022/09/17 08:46:07;;;;;;;9.93;3.03;;;;;;;26.95;56.88;97213.00;5093819;28;20624;-57
2022/09/17 08:48:43;;;;;;;11.73;3.30;;;;;;;27.05;56.83;97234.44;5092375;28;20207;-57
2022/09/17 08:51:47;;;;;;;9.27;3.70;;;;;;;27.19;56.82;97225.22;5093896;28;20171;-57
2022/09/17 08:54:22;;;;;;;9.13;2.80;;;;;;;27.32;56.78;97219.59;5093344;28;20218;-57
2022/09/17 08:57:00;;;;;;;7.35;3.30;;;;;;;27.40;56.09;97213.88;5093585;28;20325;-57
2022/09/17 08:59:46;;;;;;;8.93;3.22;;;;;;;27.37;56.18;97200.25;5093417;28;20164;-57
2022/09/17 09:02:38;;;;;;;12.70;3.47;;;;;;;27.40;56.24;97215.75;5093428;28;20160;-57
2022/09/17 09:05:53;;;;;;;13.85;3.63;;;;;;;27.42;55.89;97219.78;5064468;28;20202;-57
2022/09/17 09:08:29;;;;;;;10.80;3.40;;;;;;;27.44;56.02;97214.19;5087873;28;20211;-57
2022/09/17 09:10:59;;;;;;;12.00;3.38;;;;;;;27.45;56.01;97219.28;5092917;28;20215;-57
2022/09/17 09:13:30;;;;;;;12.00;3.28;;;;;;;27.52;54.96;97208.50;5093317;28;20160;-57
2022/09/17 09:16:02;;;;;;;9.60;3.88;;;;;;;27.53;55.17;97205.59;5093038;28;20254;-59
2022/09/17 09:18:35;;;;;;;10.13;3.60;;;;;;;27.52;56.03;97197.88;5092825;28;20191;-58
2022/09/17 09:21:22;;;;;;;6.22;3.13;;;;;;;27.56;56.33;97189.19;5092982;28;20183;-57
2022/09/17 09:23:57;;;;;;;10.70;3.10;;;;;;;27.59;55.51;97199.31;5091302;28;20174;-57
2022/09/17 09:26:43;;;;;;;7.43;2.97;;;;;;;27.58;54.75;97191.59;5093029;28;20179;-58
2022/09/17 09:29:09;;;;;;;9.38;3.53;;;;;;;27.51;54.96;97173.16;5092886;28;20222;-58
2022/09/17 09:31:55;;;;;;;7.93;3.25;;;;;;;27.29;55.42;97161.59;5092959;28;20555;-58
2022/09/17 09:34:22;;;;;;;8.30;3.10;;;;;;;27.36;55.94;97151.66;5092871;28;20254;-59
2022/09/17 09:36:49;;;;;;;8.40;2.75;;;;;;;27.39;55.92;97135.22;5091272;28;20266;-58
2022/09/17 09:39:23;;;;;;;13.88;3.22;;;;;;;27.64;54.91;97158.75;5092873;28;20262;-58
2022/09/17 09:41:54;;;;;;;13.45;3.53;;;;;;;27.81;54.70;97170.97;5092565;28;20156;-58
2022/09/17 09:44:19;;;;;;;14.25;3.70;;;;;;;27.89;54.14;97151.16;5092557;28;20646;-58
2022/09/17 09:47:11;;;;;;;11.68;3.65;;;;;;;27.95;53.21;97144.88;5092476;28;20250;-58
2022/09/17 09:50:00;;;;;;;13.65;3.90;;;;;;;28.04;53.05;97138.09;5092332;28;20761;-58
2022/09/17 09:52:26;;;;;;;10.73;3.47;;;;;;;28.12;52.11;97137.66;5092682;28;20168;-58
2022/09/17 09:55:05;;;;;;;11.35;3.30;;;;;;;28.12;53.30;97142.97;5091061;28;20911;-58
2022/09/17 09:57:47;;;;;;;9.02;4.30;;;;;;;28.25;51.77;97142.59;5092617;28;20633;-58
2022/09/17 10:00:36;;;;;;;10.25;3.83;;;;;;;28.23;51.76;97140.19;5092234;28;20176;-59
2022/09/17 10:03:19;;;;;;;11.75;3.20;;;;;;;28.37;51.82;97122.84;5092359;28;20156;-58
2022/09/17 10:06:14;;;;;;;7.35;3.47;;;;;;;28.33;49.45;97137.66;5092166;28;20176;-58
2022/09/17 10:09:01;;;;;;;9.45;3.70;;;;;;;28.49;49.76;97120.88;5090494;28;20274;-58
2022/09/17 10:11:34;;;;;;;12.23;3.40;;;;;;;28.55;49.11;97124.38;5091961;28;20195;-58
2022/09/17 10:14:23;;;;;;;8.50;3.45;;;;;;;28.57;48.40;97117.75;5092381;28;20186;-58
2022/09/17 10:16:49;;;;;;;10.13;3.50;;;;;;;28.75;48.56;97098.78;5092292;28;20189;-58
2022/09/17 10:19:23;;;;;;;8.48;3.10;;;;;;;28.73;47.94;97084.09;5091895;28;20660;-58
2022/09/17 10:21:51;;;;;;;12.48;3.25;;;;;;;28.82;47.79;97085.25;5092289;28;20184;-58
2022/09/17 10:24:24;;;;;;;11.68;3.35;;;;;;;29.01;47.91;97083.88;5092223;28;20620;-58
2022/09/17 10:26:51;;;;;;;9.77;3.42;;;;;;;29.25;47.88;97087.81;5092018;28;20167;-59
2022/09/17 10:29:19;;;;;;;6.43;2.90;;;;;;;29.52;47.85;97083.22;5091912;28;20248;-58
2022/09/17 10:31:53;;;;;;;11.80;3.38;;;;;;;29.52;46.91;97078.69;5091818;28;20172;-58
2022/09/17 10:34:36;;;;;;;7.80;3.42;;;;;;;29.70;46.86;97082.84;5092303;28;20160;-57
2022/09/17 10:37:02;;;;;;;6.88;2.60;;;;;;;29.89;46.76;97090.16;5092083;28;20164;-57
2022/09/17 10:39:43;;;;;;;8.40;3.53;;;;;;;29.91;47.26;97092.56;5091870;28;20164;-57
2022/09/17 10:42:13;;;;;;;9.82;3.38;;;;;;;30.16;47.32;97090.06;5092089;28;20217;-57
2022/09/17 10:44:57;;;;;;;11.38;3.17;;;;;;;30.48;46.22;97104.84;5091900;28;20176;-57
2022/09/17 10:47:32;;;;;;;11.57;3.47;;;;;;;30.70;43.91;97118.03;5092010;28;20168;-57
2022/09/17 10:50:15;;;;;;;8.52;3.00;;;;;;;30.71;43.76;97141.03;5091915;28;20187;-58
2022/09/17 10:52:47;;;;;;;8.18;3.08;;;;;;;30.54;42.69;97146.53;5092149;28;20155;-57
2022/09/17 10:55:24;;;;;;;11.20;2.92;;;;;;;30.37;44.13;97145.13;5090548;28;20649;-58
2022/09/17 10:58:06;;;;;;;14.73;3.40;;;;;;;30.22;44.49;97147.72;5091742;28;20309;-57
2022/09/17 11:00:43;;;;;;;6.60;3.10;;;;;;;30.05;44.80;97192.44;5091698;28;20176;-57
2022/09/17 11:03:20;;;;;;;12.93;3.45;;;;;;;29.89;44.67;97172.84;5091744;28;20160;-58
2022/09/17 11:06:30;;;;;;;10.25;2.97;;;;;;;29.77;45.40;97190.91;5091695;28;20659;-57
2022/09/17 11:09:20;;;;;;;10.68;2.67;;;;;;;29.62;46.54;97185.44;5091551;28;20191;-57
2022/09/17 11:12:03;;;;;;;12.38;2.72;;;;;;;29.46;47.61;97173.03;5091889;28;20198;-57
2022/09/17 11:14:37;;;;;;;5.70;2.60;;;;;;;29.47;47.41;97187.97;5095929;28;20170;-57
2022/09/17 11:17:21;;;;;;;10.38;3.13;;;;;;;29.51;46.41;97166.94;5095600;28;20203;-57
2022/09/17 11:20:10;;;;;;;7.80;2.67;;;;;;;29.60;46.19;97186.75;5095144;28;20712;-57
2022/09/17 11:23:14;;;;;;;8.05;2.47;;;;;;;29.61;46.67;97221.16;5084499;28;20207;-57
2022/09/17 11:26:16;;;;;;;4.97;2.30;;;;;;;29.50;46.15;97279.97;5016320;28;20673;-57
2022/09/17 11:29:00;;;;;;;14.80;3.47;;;;;;;28.95;49.16;97280.16;5095482;28;20632;-57
2022/09/17 11:31:28;;;;;;;9.30;2.85;;;;;;;28.56;51.04;97275.09;5095101;28;20171;-57
2022/09/17 11:34:12;;;;;;;9.40;2.75;;;;;;;28.36;52.53;97280.06;5095125;28;20168;-58
2022/09/17 11:37:03;;;;;;;15.80;3.78;;;;;;;27.93;54.91;97317.97;5094909;28;20728;-58
2022/09/17 11:39:40;;;;;;;11.50;3.42;;;;;;;27.53;60.69;97340.34;5095191;28;20188;-58
2022/09/17 11:42:11;;;;;;;14.10;3.28;;;;;;;27.02;69.30;97301.34;5094728;28;20199;-58
2022/09/17 11:44:41;;;;;;;14.63;3.45;;;;;;;26.84;73.28;97285.56;5095102;28;20164;-58
2022/09/17 11:47:29;;;;;;;7.82;3.13;;;;;;;26.97;74.96;97289.78;5094840;28;20170;-58
2022/09/17 11:50:00;;;;;;;9.05;2.42;;;;;;;27.03;73.31;97294.97;5063617;28;20239;-58
2022/09/17 11:52:29;;;;;;;6.30;2.40;;;;;;;26.99;74.49;97277.88;5094654;28;20166;-58